createdAt,value
2022-09-21T07:34:02.411Z,97383.84
2022-09-21T07:35:04.364Z,97426.28
2022-09-21T07:40:18.421Z,97416.97
2022-09-21T07:41:22.336Z,97414.03
2022-09-21T07:45:47.300Z,97418.75
2022-09-21T07:46:49.227Z,97401.97
2022-09-21T07:47:50.804Z,97424.22
2022-09-21T07:51:48.932Z,97422.59
2022-09-21T07:52:50.405Z,97411.63
2022-09-21T07:53:59.339Z,97424.66
2022-09-21T07:55:00.854Z,97421.81
2022-09-21T07:56:07.644Z,97411.91
2022-09-21T07:59:24.559Z,97414.47
2022-09-21T08:00:28.089Z,97417.16
2022-09-21T08:01:30.853Z,97415.22
2022-09-21T08:02:32.727Z,97412.59
2022-09-21T08:03:34.183Z,97427.69
2022-09-21T08:04:39.292Z,97427.91
2022-09-21T08:05:40.817Z,97413.50
2022-09-21T08:06:42.274Z,97421.38
2022-09-21T08:07:43.704Z,97422.25
2022-09-21T08:08:48.371Z,97414.78
2022-09-21T08:09:50.865Z,97421.50
2022-09-21T08:10:54.619Z,97417.66
2022-09-21T08:11:56.183Z,97421.97
2022-09-21T08:12:58.572Z,97423.59
2022-09-21T08:14:03.168Z,97427.53
2022-09-21T08:21:56.954Z,97417.06
2022-09-21T08:23:00.011Z,97421.19
2022-09-21T08:24:01.734Z,97400.19
2022-09-21T08:25:05.391Z,97431.47
2022-09-21T08:26:07.714Z,97419.34
2022-09-21T08:27:09.074Z,97420.38
2022-09-21T08:28:11.184Z,97426.25
2022-09-21T08:29:14.352Z,97417.56
2022-09-21T08:30:15.725Z,97408.00
2022-09-21T08:31:19.558Z,97423.28
2022-09-21T08:32:46.417Z,97417.66
2022-09-21T08:33:43.197Z,97422.13
2022-09-21T08:34:44.641Z,97421.28
2022-09-21T08:35:53.769Z,97414.06
2022-09-21T08:36:55.874Z,97432.31
2022-09-21T08:37:57.353Z,97411.00
2022-09-21T08:38:58.796Z,97428.66
2022-09-21T08:40:05.617Z,97425.97
2022-09-21T08:41:23.026Z,97431.25
2022-09-21T08:42:52.469Z,97423.84
2022-09-21T08:44:03.140Z,97419.91
2022-09-21T08:52:01.060Z,97388.28
2022-09-21T08:53:16.305Z,97428.63
2022-09-21T08:54:56.735Z,97429.63
2022-09-21T08:55:58.245Z,97380.03
2022-09-21T08:57:06.904Z,97415.91
2022-09-21T08:58:25.845Z,97407.91
2022-09-21T08:59:28.066Z,97427.47
2022-09-21T09:00:37.574Z,97404.78
2022-09-21T09:01:47.408Z,97420.13
2022-09-21T09:03:02.060Z,97412.53
2022-09-21T09:04:19.504Z,97425.09
2022-09-21T09:05:45.836Z,97421.44
2022-09-21T09:07:21.302Z,97423.91
2022-09-21T09:14:05.519Z,97420.97
2022-09-21T09:15:34.586Z,97381.47
2022-09-21T09:16:49.530Z,97420.25
2022-09-21T09:18:09.609Z,97419.25
2022-09-21T09:19:23.635Z,97420.81
2022-09-21T09:20:32.685Z,97412.53
2022-09-21T09:21:39.073Z,97412.44
2022-09-21T09:22:45.799Z,97417.66
2022-09-21T09:23:53.890Z,97405.09
2022-09-21T09:25:00.496Z,97418.16
2022-09-21T09:26:19.521Z,97417.16
2022-09-21T09:27:39.408Z,97414.00
2022-09-21T09:28:58.902Z,97415.25
2022-09-21T09:30:23.741Z,97407.22
2022-09-21T09:31:29.543Z,97420.59
2022-09-21T09:32:41.829Z,97411.72
2022-09-21T09:33:45.845Z,97413.66
2022-09-21T09:35:05.228Z,97414.66
2022-09-21T09:36:07.192Z,97399.56
2022-09-21T09:37:14.781Z,97410.06
2022-09-21T09:38:34.552Z,97408.44
2022-09-21T09:39:36.181Z,97406.22
2022-09-21T09:41:01.344Z,97410.72
2022-09-21T09:42:23.149Z,97413.72
2022-09-21T09:43:35.991Z,97399.22
2022-09-21T09:44:42.299Z,97411.91
2022-09-21T09:46:02.326Z,97409.97
2022-09-21T09:47:28.717Z,97417.25
2022-09-21T09:49:06.184Z,97414.59
2022-09-21T09:50:10.505Z,97413.72
2022-09-21T09:51:13.058Z,97410.59
2022-09-21T09:52:16.151Z,97410.16
2022-09-21T09:53:20.865Z,97410.16
2022-09-21T09:54:26.272Z,97391.13
2022-09-21T09:55:37.768Z,97403.63
2022-09-21T09:56:39.106Z,97405.81
2022-09-21T09:57:40.640Z,97405.91
2022-09-21T09:58:52.444Z,97407.41
2022-09-21T09:59:59.303Z,97400.31
2022-09-21T10:01:00.666Z,97390.00
2022-09-21T10:02:18.848Z,97375.19
2022-09-21T10:03:23.781Z,97391.88
2022-09-21T10:04:25.249Z,97398.81
2022-09-21T10:05:35.833Z,97396.06
2022-09-21T10:06:41.095Z,97388.59
2022-09-21T10:07:46.535Z,97395.22
2022-09-21T10:08:51.255Z,97390.53
2022-09-21T10:09:52.598Z,97393.22
2022-09-21T10:10:54.100Z,97394.81
2022-09-21T10:12:23.324Z,97394.44
2022-09-21T10:13:24.610Z,97398.22
2022-09-21T10:20:06.082Z,97393.84
2022-09-21T10:21:14.761Z,97384.13
2022-09-21T10:22:19.144Z,97386.63
2022-09-21T10:23:20.694Z,97351.22
2022-09-21T10:24:25.500Z,97383.66
2022-09-21T10:25:27.042Z,97372.22
2022-09-21T10:27:00.730Z,97380.47
2022-09-21T10:28:04.058Z,97377.56
2022-09-21T10:29:21.631Z,97383.03
2022-09-21T10:30:38.787Z,97375.91
2022-09-21T10:31:55.210Z,97372.03
2022-09-21T10:38:08.605Z,97377.09
2022-09-21T10:39:30.267Z,97386.31
2022-09-21T10:40:37.238Z,97373.31
2022-09-21T10:41:38.672Z,97366.47
2022-09-21T10:42:42.648Z,97372.63
2022-09-21T10:43:44.696Z,97344.22
2022-09-21T10:44:47.051Z,97373.91
2022-09-21T10:46:06.718Z,97368.38
2022-09-21T10:47:17.225Z,97370.78
2022-09-21T10:48:22.533Z,97370.88
2022-09-21T10:49:27.769Z,97371.09
2022-09-21T10:50:38.581Z,97373.94
2022-09-21T10:51:40.174Z,97369.13
2022-09-21T10:52:45.959Z,97368.09
2022-09-21T10:53:53.754Z,97367.13
2022-09-21T10:55:00.277Z,97357.16
2022-09-21T11:01:12.577Z,97370.31
2022-09-21T11:02:37.108Z,97362.03
2022-09-21T11:03:57.618Z,97363.09
2022-09-21T11:05:15.069Z,97356.38
2022-09-21T11:06:22.392Z,97357.34
2022-09-21T11:07:39.655Z,97367.03
2022-09-21T11:09:06.132Z,97364.47
2022-09-21T11:10:18.584Z,97370.34
2022-09-21T11:11:43.800Z,97364.19
2022-09-21T11:19:44.074Z,97366.81
2022-09-21T11:20:55.101Z,97370.94
2022-09-21T11:22:33.653Z,97365.13
2022-09-21T11:23:55.150Z,97366.75
2022-09-21T11:31:36.947Z,97357.72
2022-09-21T11:33:12.000Z,97354.28
2022-09-21T11:34:47.875Z,97357.00
2022-09-21T11:36:23.117Z,97355.53
2022-09-21T11:37:36.432Z,97350.97
2022-09-21T11:38:55.821Z,97349.19
2022-09-21T11:40:24.716Z,97338.00
2022-09-21T11:41:33.943Z,97344.66
2022-09-21T11:43:12.643Z,97343.41
2022-09-21T11:44:19.039Z,97334.50
2022-09-21T11:45:30.833Z,97335.91
2022-09-21T11:46:46.180Z,97331.56
2022-09-21T11:47:56.544Z,97332.75
2022-09-21T12:13:54.650Z,97289.13
2022-09-21T12:15:09.219Z,97307.22
2022-09-21T12:16:21.526Z,97297.69
2022-09-21T12:17:49.889Z,97308.09
2022-09-21T12:19:04.639Z,97309.91
2022-09-21T12:20:16.585Z,97314.94
2022-09-21T12:21:22.827Z,97312.59
2022-09-21T12:22:31.968Z,97312.47
2022-09-21T12:23:49.187Z,97313.16
2022-09-21T12:24:54.171Z,97313.63
2022-09-21T12:25:58.627Z,97311.09
2022-09-21T12:27:09.677Z,97314.44
2022-09-21T12:28:22.521Z,97281.34
2022-09-21T12:29:31.746Z,97313.75
2022-09-21T12:30:35.483Z,97298.44
2022-09-21T12:32:01.458Z,97303.97
2022-09-21T12:33:18.778Z,97300.72
2022-09-21T12:34:29.157Z,97299.06
2022-09-21T12:35:54.002Z,97289.94
2022-09-21T12:43:47.997Z,97294.53
2022-09-21T12:44:55.532Z,97300.38
2022-09-21T12:46:10.703Z,97290.50
2022-09-21T12:47:14.274Z,97304.53
2022-09-21T12:48:28.885Z,97302.69
2022-09-21T12:49:32.994Z,97301.50
2022-09-21T12:50:48.859Z,97299.13
2022-09-21T12:51:58.701Z,97300.69
2022-09-21T12:53:01.139Z,97288.16
2022-09-21T12:54:28.273Z,97291.03
2022-09-21T12:55:35.643Z,97291.28
2022-09-21T12:57:29.699Z,97292.13
2022-09-21T12:58:45.600Z,97294.84
2022-09-21T13:00:00.694Z,97289.47
2022-09-21T13:01:29.121Z,97287.69
2022-09-21T13:02:50.486Z,97288.84
2022-09-21T13:04:01.920Z,97287.78
2022-09-21T13:05:06.280Z,97287.88
2022-09-21T13:06:36.865Z,97282.75
2022-09-21T13:07:53.172Z,97282.34
2022-09-21T13:08:55.369Z,97294.09
2022-09-21T13:09:57.561Z,97267.34
2022-09-21T13:11:05.527Z,97288.69
2022-09-21T13:12:24.972Z,97271.81
2022-09-21T13:25:09.251Z,97293.53
2022-09-21T13:26:14.135Z,97267.88
2022-09-21T13:27:15.938Z,97282.09
2022-09-21T13:28:24.121Z,97283.34
2022-09-21T13:29:36.977Z,97267.50
2022-09-21T13:30:49.793Z,97269.91
2022-09-21T13:32:00.295Z,97284.38
2022-09-21T13:33:03.662Z,97273.81
2022-09-21T13:34:16.575Z,97280.59
2022-09-21T13:35:56.161Z,97281.22
2022-09-21T13:37:18.533Z,97277.91
2022-09-21T13:38:34.540Z,97269.59
2022-09-21T13:39:35.853Z,97250.38
2022-09-21T13:40:37.679Z,97251.53
2022-09-21T13:42:01.964Z,97269.72
2022-09-21T13:49:51.230Z,97260.88
2022-09-21T13:50:57.872Z,97260.84
2022-09-21T13:52:00.232Z,97268.09
2022-09-21T13:53:04.904Z,97264.72
2022-09-21T13:54:06.453Z,97254.81
2022-09-21T14:01:55.342Z,97248.03
2022-09-21T14:03:04.091Z,97237.91
2022-09-21T14:04:27.874Z,97247.53
2022-09-21T14:05:43.140Z,97242.63
2022-09-21T14:06:49.115Z,97247.28
2022-09-21T14:08:01.004Z,97223.34
2022-09-21T14:09:06.746Z,97235.03
2022-09-21T14:10:10.108Z,97243.94
2022-09-21T14:11:33.549Z,97243.09
2022-09-21T14:12:44.525Z,97243.91
2022-09-21T14:14:00.704Z,97238.88
2022-09-21T14:15:29.838Z,97247.59
2022-09-21T14:16:33.978Z,97248.53
2022-09-21T14:17:39.613Z,97247.44
2022-09-21T14:18:41.211Z,97235.78
2022-09-21T14:19:42.551Z,97250.13
2022-09-21T14:21:08.769Z,97244.22
2022-09-21T14:22:10.533Z,97244.56
2022-09-21T14:23:11.848Z,97244.75
2022-09-21T14:24:19.809Z,97238.59
2022-09-21T14:25:30.872Z,97238.72
2022-09-21T14:26:36.717Z,97243.84
2022-09-21T14:27:45.975Z,97236.41
2022-09-21T14:28:51.615Z,97232.22
2022-09-21T14:30:07.353Z,97235.25
2022-09-21T14:31:18.942Z,97240.59
2022-09-21T14:32:24.899Z,97233.22
2022-09-21T14:33:33.114Z,97227.75
2022-09-21T14:34:36.860Z,97236.91
2022-09-21T14:35:43.098Z,97222.00
2022-09-21T14:36:49.987Z,97231.09
2022-09-21T14:38:04.818Z,97230.19
2022-09-21T14:39:13.373Z,97222.53
2022-09-21T14:40:23.581Z,97221.94
2022-09-21T14:41:25.300Z,97233.84
2022-09-21T14:42:28.855Z,97196.06
2022-09-21T14:43:35.167Z,97204.34
2022-09-21T14:44:38.702Z,97225.75
2022-09-21T14:46:11.694Z,97231.19
2022-09-21T14:47:30.473Z,97231.69
2022-09-21T14:48:56.393Z,97222.31
2022-09-21T14:50:11.751Z,97226.47
2022-09-21T14:51:32.419Z,97228.75
2022-09-21T14:53:18.072Z,97223.13
2022-09-21T14:54:57.073Z,97221.28
2022-09-21T14:56:23.453Z,97215.97
2022-09-21T14:57:40.678Z,97211.19
2022-09-21T14:58:47.738Z,97217.38
2022-09-21T15:00:08.016Z,97215.97
2022-09-21T15:01:25.591Z,97219.97
2022-09-21T15:02:31.531Z,97212.97
2022-09-21T15:04:00.266Z,97217.38
2022-09-21T15:05:10.961Z,97221.66
2022-09-21T15:18:15.408Z,97199.09
2022-09-21T15:19:27.637Z,97202.94
2022-09-21T15:20:32.015Z,97205.91
2022-09-21T15:21:33.378Z,97201.88
2022-09-21T15:22:43.061Z,97196.66
2022-09-21T15:23:44.455Z,97200.88
2022-09-21T15:36:04.372Z,97185.53
2022-09-21T15:37:07.713Z,97193.31
2022-09-21T15:38:27.675Z,97186.28
2022-09-21T15:39:31.300Z,97193.16
2022-09-21T15:40:36.592Z,97189.63
2022-09-21T15:41:44.746Z,97192.53
2022-09-21T15:42:59.573Z,97196.78
2022-09-21T15:44:14.881Z,97192.66
2022-09-21T15:45:19.247Z,97192.44
2022-09-21T15:46:20.721Z,97187.72
2022-09-21T15:47:29.449Z,97196.03
2022-09-21T16:00:21.609Z,97199.59
2022-09-21T16:01:23.591Z,97205.41
2022-09-21T16:02:28.414Z,97194.88
2022-09-21T16:03:29.943Z,97195.28
2022-09-21T16:04:33.730Z,97198.06
2022-09-21T16:05:50.160Z,97199.31
2022-09-21T16:07:03.216Z,97194.59
2022-09-21T16:08:29.870Z,97193.84
2022-09-21T16:09:45.563Z,97203.47
2022-09-21T16:10:46.982Z,97195.38
2022-09-21T16:11:48.585Z,97198.72
2022-09-21T16:24:19.873Z,97204.53
2022-09-21T16:25:37.500Z,97197.63
2022-09-21T16:26:41.085Z,97211.50
2022-09-21T16:27:55.460Z,97198.06
2022-09-21T16:29:23.577Z,97190.34
2022-09-21T16:30:50.987Z,97200.59
2022-09-21T16:32:17.987Z,97208.44
2022-09-21T16:33:42.607Z,97207.34
2022-09-21T16:34:51.805Z,97215.41
2022-09-21T16:35:53.917Z,97206.63
2022-09-21T16:36:55.339Z,97216.44
2022-09-21T16:38:00.430Z,97177.59
2022-09-21T16:39:06.070Z,97214.31
2022-09-21T16:40:09.771Z,97212.69
2022-09-21T16:41:11.279Z,97202.31
2022-09-21T16:49:02.188Z,97223.56
2022-09-21T16:50:08.015Z,97224.13
2022-09-21T16:51:12.700Z,97216.13
2022-09-21T16:52:16.379Z,97217.88
2022-09-21T16:53:19.323Z,97213.28
2022-09-21T16:54:24.283Z,97221.66
2022-09-21T16:55:29.131Z,97220.78
2022-09-21T16:56:31.236Z,97219.31
2022-09-21T16:57:33.885Z,97222.00
2022-09-21T16:58:35.339Z,97219.84
2022-09-21T16:59:36.736Z,97220.13
2022-09-21T17:00:41.234Z,97190.41
2022-09-21T17:01:43.586Z,97227.66
2022-09-21T17:02:45.263Z,97214.88
2022-09-21T17:03:50.909Z,97218.63
2022-09-21T17:04:52.277Z,97220.44
2022-09-21T17:05:53.603Z,97225.81
2022-09-21T17:06:55.756Z,97220.16
2022-09-21T17:07:59.031Z,97216.78
2022-09-21T17:09:01.072Z,97213.63
2022-09-21T17:10:12.735Z,97217.81
2022-09-21T17:11:19.662Z,97217.16
2022-09-21T17:12:22.069Z,97218.16
2022-09-21T17:13:23.446Z,97174.94
2022-09-21T17:14:25.293Z,97214.25
2022-09-21T17:15:28.560Z,97209.34
2022-09-21T17:16:29.947Z,97220.38
2022-09-21T17:17:33.106Z,97220.72
2022-09-21T17:18:35.670Z,97215.44
2022-09-21T17:19:37.094Z,97217.81
2022-09-21T17:20:43.771Z,97205.72
2022-09-21T17:21:46.537Z,97217.19
2022-09-21T17:22:51.989Z,97229.56
2022-09-21T17:29:05.765Z,97233.06
2022-09-21T17:30:15.541Z,97234.31
2022-09-21T17:31:16.988Z,97232.22
2022-09-21T17:32:21.198Z,97213.44
2022-09-21T17:33:23.904Z,97229.03
2022-09-21T17:34:28.594Z,97216.84
2022-09-21T17:35:41.552Z,97233.97
2022-09-21T17:36:43.035Z,97230.22
